createdAt,value
2023-08-26T00:02:00.545Z,12.98
2023-08-26T00:04:28.505Z,12.27
2023-08-26T00:06:56.463Z,10.63
2023-08-26T00:09:25.854Z,14.65
2023-08-26T00:11:54.077Z,11.85
2023-08-26T00:14:22.024Z,12.32
2023-08-26T00:16:50.025Z,13.77
2023-08-26T00:19:18.991Z,13.63
2023-08-26T00:21:47.007Z,14.10
2023-08-26T00:24:15.008Z,15.02
2023-08-26T00:26:44.385Z,14.75
2023-08-26T00:29:12.526Z,11.02
2023-08-26T00:31:40.614Z,12.55
2023-08-26T00:34:08.612Z,11.20
2023-08-26T00:36:36.613Z,16.20
2023-08-26T00:39:04.873Z,12.43
2023-08-26T00:41:32.860Z,16.00
2023-08-26T00:44:02.207Z,11.95
2023-08-26T00:46:31.160Z,15.23
2023-08-26T00:49:00.938Z,10.70
2023-08-26T00:51:29.069Z,11.27
2023-08-26T00:53:57.996Z,10.88
2023-08-26T00:56:26.180Z,11.13
2023-08-26T00:58:54.482Z,13.57
2023-08-26T01:01:25.339Z,11.77
2023-08-26T01:03:53.930Z,11.88
2023-08-26T01:06:21.960Z,13.93
2023-08-26T01:08:50.269Z,12.40
2023-08-26T01:11:26.461Z,12.82
2023-08-26T01:14:03.612Z,13.48
2023-08-26T01:16:36.056Z,17.58
2023-08-26T01:19:07.118Z,12.02
2023-08-26T01:21:39.956Z,11.75
2023-08-26T01:24:10.613Z,11.32
2023-08-26T01:26:38.599Z,11.88
2023-08-26T01:29:06.539Z,11.90
2023-08-26T01:31:35.054Z,10.73
2023-08-26T01:34:12.621Z,12.40
2023-08-26T01:36:45.325Z,11.50
2023-08-26T01:39:16.893Z,10.65
2023-08-26T01:41:52.628Z,11.68
2023-08-26T01:44:21.227Z,10.13
2023-08-26T01:46:49.948Z,11.23
2023-08-26T01:49:18.067Z,10.80
2023-08-26T01:51:46.068Z,9.23
2023-08-26T01:54:15.393Z,9.38
2023-08-26T01:56:43.426Z,9.38
2023-08-26T01:59:11.398Z,11.07
2023-08-26T02:01:39.394Z,12.70
2023-08-26T02:04:08.010Z,9.63
2023-08-26T02:06:35.982Z,13.13
2023-08-26T02:09:04.093Z,11.48
2023-08-26T02:11:33.438Z,12.82
2023-08-26T02:14:01.575Z,12.27
2023-08-26T02:16:29.732Z,13.02
2023-08-26T02:18:57.809Z,10.68
2023-08-26T02:21:26.039Z,13.25
2023-08-26T02:23:54.112Z,10.10
2023-08-26T02:26:22.315Z,12.48
2023-08-26T02:28:51.697Z,10.98
2023-08-26T02:31:19.768Z,10.93
2023-08-26T02:33:47.789Z,10.90
2023-08-26T02:36:15.896Z,10.00
2023-08-26T02:38:44.023Z,9.90
2023-08-26T02:41:12.152Z,10.60
2023-08-26T02:43:40.125Z,11.77
2023-08-26T02:46:09.495Z,9.98
2023-08-26T02:48:37.540Z,9.23
2023-08-26T02:51:05.608Z,9.38
2023-08-26T02:53:33.623Z,12.30
2023-08-26T02:56:02.298Z,9.13
2023-08-26T02:58:30.484Z,9.30
2023-08-26T03:01:02.688Z,10.98
2023-08-26T03:03:32.503Z,11.40
2023-08-26T03:06:00.882Z,9.55
2023-08-26T03:08:29.068Z,10.57
2023-08-26T03:11:01.663Z,9.35
2023-08-26T03:13:29.844Z,9.15
2023-08-26T03:15:58.225Z,9.90
2023-08-26T03:18:26.487Z,11.18
2023-08-26T03:20:55.765Z,9.40
2023-08-26T03:23:23.903Z,8.80
2023-08-26T03:25:51.935Z,10.13
2023-08-26T03:28:20.374Z,9.38
2023-08-26T03:30:48.490Z,9.23
2023-08-26T03:33:17.101Z,9.07
2023-08-26T03:35:45.083Z,9.13
2023-08-26T03:38:14.586Z,9.85
2023-08-26T03:40:42.746Z,12.35
2023-08-26T03:43:10.932Z,10.13
2023-08-26T03:45:40.982Z,8.90
2023-08-26T03:48:09.104Z,8.70
2023-08-26T03:50:37.903Z,9.73
2023-08-26T03:53:06.213Z,10.13
2023-08-26T03:55:37.957Z,10.43
2023-08-26T03:58:06.739Z,10.85
2023-08-26T04:00:34.790Z,9.98
2023-08-26T04:03:02.867Z,10.13
2023-08-26T04:05:30.911Z,11.93
2023-08-26T04:07:59.232Z,11.07
2023-08-26T04:10:27.353Z,13.57
2023-08-26T04:13:03.058Z,12.68
2023-08-26T04:15:31.307Z,9.75
2023-08-26T04:17:59.969Z,11.73
2023-08-26T04:20:28.141Z,10.18
2023-08-26T04:22:56.172Z,11.23
2023-08-26T04:25:24.121Z,11.13
2023-08-26T04:27:52.128Z,23.83
2023-08-26T04:30:21.556Z,9.35
2023-08-26T04:32:49.688Z,9.65
2023-08-26T04:35:18.331Z,9.65
2023-08-26T04:37:46.304Z,9.80
2023-08-26T04:40:14.995Z,12.27
2023-08-26T04:42:43.240Z,11.45
2023-08-26T04:45:15.764Z,14.75
2023-08-26T04:47:46.126Z,12.80
2023-08-26T04:50:14.531Z,14.00
2023-08-26T04:52:43.500Z,10.07
2023-08-26T04:55:12.556Z,12.32
2023-08-26T04:57:40.697Z,11.98
2023-08-26T05:00:12.096Z,13.05
2023-08-26T05:02:40.889Z,9.35
2023-08-26T05:05:10.769Z,12.27
2023-08-26T05:07:38.908Z,9.82
2023-08-26T05:10:08.564Z,10.75
2023-08-26T05:12:37.157Z,9.18
2023-08-26T05:15:06.703Z,9.07
2023-08-26T05:17:34.766Z,8.90
2023-08-26T05:20:03.788Z,7.53
2023-08-26T05:22:33.240Z,6.72
2023-08-26T05:25:01.257Z,5.75
2023-08-26T05:27:29.742Z,5.97
2023-08-26T05:29:57.910Z,5.90
2023-08-26T05:32:27.425Z,7.78
2023-08-26T05:34:55.549Z,6.15
2023-08-26T05:37:23.784Z,6.53
2023-08-26T05:39:53.245Z,6.10
2023-08-26T05:42:21.258Z,5.10
2023-08-26T05:44:49.296Z,4.90
2023-08-26T05:47:17.265Z,5.50
2023-08-26T05:49:45.312Z,4.97
2023-08-26T05:52:13.294Z,5.65
2023-08-26T05:54:41.239Z,4.80
2023-08-26T05:57:12.055Z,4.72
2023-08-26T05:59:40.289Z,4.90
2023-08-26T06:02:08.346Z,4.63
2023-08-26T06:04:36.523Z,4.22
2023-08-26T06:07:04.542Z,4.93
2023-08-26T06:09:32.663Z,5.57
2023-08-26T06:12:00.635Z,3.90
2023-08-26T06:14:29.952Z,4.47
2023-08-26T06:16:58.154Z,3.75
2023-08-26T06:19:26.153Z,5.55
2023-08-26T06:21:54.340Z,3.92
2023-08-26T06:24:22.316Z,4.32
2023-08-26T06:26:50.478Z,3.92
2023-08-26T06:29:20.472Z,3.63
2023-08-26T06:31:49.867Z,4.10
2023-08-26T06:34:18.059Z,3.78
2023-08-26T06:36:47.199Z,3.85
2023-08-26T06:39:15.387Z,3.70
2023-08-26T06:41:43.675Z,4.78
2023-08-26T06:44:12.174Z,6.85
2023-08-26T06:46:41.669Z,3.35
2023-08-26T06:49:11.304Z,6.35
2023-08-26T06:51:39.351Z,3.50
2023-08-26T06:54:07.762Z,7.22
2023-08-26T06:56:35.776Z,4.70
2023-08-26T06:59:04.640Z,3.10
2023-08-26T07:01:35.347Z,3.25
2023-08-26T07:04:06.941Z,3.10
2023-08-26T07:06:37.408Z,3.15
2023-08-26T07:09:06.433Z,4.20
2023-08-26T07:11:34.582Z,5.00
2023-08-26T07:14:02.595Z,3.53
2023-08-26T07:16:31.343Z,3.15
2023-08-26T07:18:59.390Z,2.90
2023-08-26T07:21:27.753Z,4.47
2023-08-26T07:23:57.129Z,4.80
2023-08-26T07:26:25.208Z,5.30
2023-08-26T07:28:54.483Z,5.35
2023-08-26T07:31:22.612Z,2.85
2023-08-26T07:33:50.632Z,2.92
2023-08-26T07:36:18.810Z,3.83
2023-08-26T07:38:46.767Z,4.80
2023-08-26T07:41:16.270Z,3.25
2023-08-26T07:43:44.246Z,4.03
2023-08-26T07:48:43.129Z,2.88
2023-08-26T07:51:11.205Z,3.55
2023-08-26T07:53:39.372Z,2.85
2023-08-26T07:56:07.348Z,10.43
2023-08-26T07:58:36.845Z,5.88
2023-08-26T08:01:04.874Z,4.95
2023-08-26T08:03:33.179Z,2.90
2023-08-26T08:06:01.178Z,6.55
2023-08-26T08:08:29.187Z,3.72
2023-08-26T08:10:57.405Z,3.00
2023-08-26T08:13:25.443Z,2.00
2023-08-26T08:15:54.870Z,2.45
2023-08-26T08:18:22.993Z,2.75
2023-08-26T08:20:51.247Z,2.47
2023-08-26T08:23:19.460Z,2.72
2023-08-26T08:25:47.438Z,2.13
2023-08-26T08:28:15.442Z,2.30
2023-08-26T08:30:43.530Z,4.53
2023-08-26T08:33:12.967Z,3.58
2023-08-26T08:35:41.105Z,2.28
2023-08-26T08:38:10.293Z,3.72
2023-08-26T08:40:40.954Z,4.10
2023-08-26T08:43:09.780Z,2.85
2023-08-26T08:45:38.105Z,2.50
2023-08-26T08:48:06.535Z,2.63
2023-08-26T08:50:36.458Z,3.10
2023-08-26T08:53:05.697Z,3.58
2023-08-26T08:55:34.434Z,3.75
2023-08-26T08:58:04.048Z,2.70
2023-08-26T09:00:32.803Z,4.05
2023-08-26T09:03:02.208Z,3.35
2023-08-26T09:05:30.434Z,2.55
2023-08-26T09:08:00.583Z,3.95
2023-08-26T09:10:29.770Z,3.17
2023-08-26T09:12:57.921Z,7.20
2023-08-26T09:15:27.395Z,4.88
2023-08-26T09:17:59.146Z,4.50
2023-08-26T09:20:29.272Z,2.67
2023-08-26T09:23:06.877Z,3.00
2023-08-26T09:25:34.937Z,3.72
2023-08-26T09:28:03.200Z,4.18
2023-08-26T09:30:31.191Z,3.88
2023-08-26T09:32:59.799Z,3.13
2023-08-26T09:38:00.048Z,3.00
2023-08-26T09:40:29.592Z,3.33
2023-08-26T09:42:57.638Z,4.50
2023-08-26T09:45:26.218Z,6.05
2023-08-26T09:47:57.453Z,3.70
2023-08-26T09:50:32.980Z,4.22
2023-08-26T09:53:01.196Z,6.65
2023-08-26T09:55:30.997Z,3.42
2023-08-26T09:57:59.572Z,2.95
2023-08-26T10:00:27.947Z,4.35
2023-08-26T10:03:01.504Z,7.15
2023-08-26T10:05:33.759Z,4.03
2023-08-26T10:08:08.494Z,2.85
2023-08-26T10:10:49.045Z,4.88
2023-08-26T10:13:21.775Z,5.25
2023-08-26T10:15:52.714Z,4.32
2023-08-26T10:18:27.052Z,3.28
2023-08-26T10:20:56.875Z,4.30
2023-08-26T10:23:27.140Z,3.25
2023-08-26T10:25:57.267Z,3.78
2023-08-26T10:28:26.689Z,9.77
2023-08-26T10:30:55.366Z,12.20
2023-08-26T10:33:23.344Z,0.00
2023-08-26T10:36:01.556Z,0.00
2023-08-26T10:38:29.630Z,0.10
2023-08-26T10:41:12.230Z,0.10
2023-08-26T10:43:51.942Z,0.10
2023-08-26T10:46:20.102Z,0.10
2023-08-26T10:48:59.154Z,0.10
2023-08-26T10:51:27.488Z,0.10
2023-08-26T10:54:03.455Z,0.10
2023-08-26T10:56:34.635Z,0.10
2023-08-26T10:59:04.448Z,0.10
2023-08-26T11:01:37.124Z,0.10
2023-08-26T11:04:06.919Z,0.10
2023-08-26T11:06:39.752Z,0.10
2023-08-26T11:09:07.851Z,0.10
2023-08-26T11:11:37.214Z,0.10
2023-08-26T11:14:05.238Z,0.10
2023-08-26T11:16:34.846Z,0.03
2023-08-26T11:19:03.772Z,0.10
2023-08-26T11:21:31.829Z,0.10
2023-08-26T11:24:02.127Z,0.10
2023-08-26T11:26:30.230Z,0.10
2023-08-26T11:29:04.022Z,0.10
2023-08-26T11:31:33.449Z,0.10
2023-08-26T11:34:01.714Z,0.10
2023-08-26T11:36:29.798Z,0.10
2023-08-26T11:38:59.689Z,0.10
2023-08-26T11:41:28.745Z,0.10
2023-08-26T11:43:56.912Z,0.10
2023-08-26T11:46:26.372Z,0.10
2023-08-26T11:48:54.410Z,0.10
2023-08-26T11:51:22.415Z,0.10
2023-08-26T11:53:51.227Z,0.10
2023-08-26T11:56:19.336Z,0.10
2023-08-26T11:58:47.387Z,0.00
2023-08-26T12:01:15.751Z,0.10
2023-08-26T12:03:46.295Z,0.10
2023-08-26T12:06:16.499Z,0.10
2023-08-26T12:08:45.856Z,0.10
2023-08-26T12:11:15.747Z,0.05
2023-08-26T12:13:43.728Z,0.10
2023-08-26T12:16:14.067Z,0.00
2023-08-26T12:18:43.980Z,0.00
2023-08-26T12:21:12.041Z,0.00
2023-08-26T12:23:40.461Z,0.00
2023-08-26T12:26:14.941Z,0.00
2023-08-26T12:28:43.409Z,0.00
2023-08-26T12:31:11.779Z,0.00
2023-08-26T12:33:53.816Z,0.05
2023-08-26T12:36:29.229Z,0.08
2023-08-26T12:38:57.420Z,0.00
2023-08-26T12:41:25.508Z,0.00
2023-08-26T12:43:56.252Z,0.00
2023-08-26T12:46:24.581Z,2.85
2023-08-26T12:48:55.559Z,6.13
2023-08-26T12:51:24.310Z,5.22
2023-08-26T12:53:54.164Z,6.55
2023-08-26T12:56:22.591Z,4.53
2023-08-26T12:58:50.639Z,6.00
2023-08-26T13:01:18.816Z,5.20
2023-08-26T13:03:46.937Z,4.93
2023-08-26T13:06:15.357Z,5.95
2023-08-26T13:08:43.362Z,6.15
2023-08-26T13:11:12.862Z,6.13
2023-08-26T13:13:40.838Z,5.05
2023-08-26T13:16:11.381Z,4.70
2023-08-26T13:18:44.247Z,4.15
2023-08-26T13:21:13.073Z,4.10
2023-08-26T13:23:41.188Z,4.30
2023-08-26T13:26:09.218Z,5.50
2023-08-26T13:28:40.160Z,5.28
2023-08-26T13:31:08.236Z,5.13
2023-08-26T13:33:36.840Z,3.50
2023-08-26T13:36:05.116Z,4.18
2023-08-26T13:38:33.197Z,4.10
2023-08-26T13:41:01.537Z,4.40
2023-08-26T13:43:29.575Z,4.78
2023-08-26T13:45:58.974Z,6.78
2023-08-26T13:48:27.128Z,4.75
2023-08-26T13:50:55.111Z,4.25
2023-08-26T13:53:23.146Z,5.07
2023-08-26T13:55:56.445Z,4.72
2023-08-26T13:58:24.659Z,3.88
2023-08-26T14:00:56.716Z,4.35
2023-08-26T14:03:26.303Z,3.38
2023-08-26T14:05:54.519Z,3.05
2023-08-26T14:08:22.701Z,2.60
2023-08-26T14:10:50.766Z,2.50
2023-08-26T14:13:18.774Z,2.75
2023-08-26T14:15:47.501Z,3.22
2023-08-26T14:18:15.579Z,4.38
2023-08-26T14:20:45.471Z,3.05
2023-08-26T14:23:13.635Z,4.15
2023-08-26T14:25:43.341Z,5.80
2023-08-26T14:28:11.498Z,3.00
2023-08-26T14:30:39.829Z,2.88
2023-08-26T14:33:07.989Z,2.72
2023-08-26T14:35:36.073Z,4.20
2023-08-26T14:38:05.914Z,3.28
2023-08-26T14:40:33.994Z,3.47
2023-08-26T14:43:02.251Z,3.25
2023-08-26T14:45:30.335Z,3.85
2023-08-26T14:47:58.521Z,4.95
2023-08-26T14:50:27.117Z,4.60
2023-08-26T14:52:55.560Z,4.75
2023-08-26T14:55:25.463Z,2.90
2023-08-26T14:57:53.445Z,5.10
2023-08-26T15:00:21.791Z,3.83
2023-08-26T15:02:49.905Z,3.00
2023-08-26T15:05:18.117Z,3.05
2023-08-26T15:07:53.646Z,8.35
2023-08-26T15:10:21.720Z,4.15
2023-08-26T15:12:51.653Z,3.25
2023-08-26T15:15:19.942Z,3.58
2023-08-26T15:17:48.111Z,4.97
2023-08-26T15:20:16.301Z,3.65
2023-08-26T15:22:45.168Z,3.58
2023-08-26T15:25:13.765Z,6.05
2023-08-26T15:27:41.811Z,4.25
2023-08-26T15:30:12.357Z,3.30
2023-08-26T15:32:40.659Z,3.22
2023-08-26T15:35:09.414Z,2.95
2023-08-26T15:37:37.453Z,3.40
2023-08-26T15:40:07.141Z,3.22
2023-08-26T15:42:35.702Z,3.17
2023-08-26T15:45:03.899Z,3.03
2023-08-26T15:47:33.295Z,3.88
2023-08-26T15:50:03.070Z,4.25
2023-08-26T15:52:32.004Z,2.80
2023-08-26T15:55:00.003Z,4.88
2023-08-26T15:57:27.999Z,3.38
2023-08-26T15:59:56.011Z,3.55
2023-08-26T16:02:24.168Z,3.00
2023-08-26T16:04:53.507Z,3.63
2023-08-26T16:07:21.535Z,3.25
2023-08-26T16:09:49.739Z,3.70
2023-08-26T16:12:18.368Z,4.53
2023-08-26T16:14:46.425Z,4.63
2023-08-26T16:17:14.422Z,3.58
2023-08-26T16:19:42.435Z,4.82
2023-08-26T16:22:11.796Z,3.65
2023-08-26T16:24:39.844Z,4.35
2023-08-26T16:27:10.281Z,3.83
2023-08-26T16:29:39.655Z,3.28
2023-08-26T16:32:07.755Z,2.83
2023-08-26T16:34:38.563Z,4.53
2023-08-26T16:37:07.334Z,3.83
2023-08-26T16:39:36.690Z,3.40
2023-08-26T16:42:05.066Z,3.13
2023-08-26T16:44:34.725Z,3.38
2023-08-26T16:47:02.801Z,5.35
2023-08-26T16:49:30.899Z,4.85
2023-08-26T16:51:59.666Z,3.45
2023-08-26T16:54:28.900Z,3.40
2023-08-26T16:56:59.394Z,3.03
2023-08-26T16:59:27.537Z,2.83
2023-08-26T17:01:55.632Z,2.78
2023-08-26T17:04:26.116Z,3.60
2023-08-26T17:06:54.219Z,3.60
2023-08-26T17:09:27.618Z,3.38
2023-08-26T17:11:56.092Z,3.47
2023-08-26T17:14:27.090Z,3.28
2023-08-26T17:16:55.603Z,5.20
2023-08-26T17:19:24.114Z,4.03
2023-08-26T17:21:52.462Z,3.88
2023-08-26T17:24:20.605Z,3.20
2023-08-26T17:26:48.604Z,3.20
2023-08-26T17:29:16.553Z,2.70
2023-08-26T17:31:46.045Z,3.78
2023-08-26T17:34:14.391Z,4.18
2023-08-26T17:36:42.371Z,3.85
2023-08-26T17:39:10.966Z,6.63
2023-08-26T17:41:38.991Z,3.95
2023-08-26T17:44:07.329Z,4.25
2023-08-26T17:46:35.370Z,4.80
2023-08-26T17:49:04.796Z,3.90
2023-08-26T17:51:32.752Z,3.65
2023-08-26T17:54:00.898Z,5.03
2023-08-26T17:56:28.879Z,4.88
2023-08-26T17:58:56.875Z,4.25
2023-08-26T18:01:24.909Z,3.75
2023-08-26T18:03:52.987Z,4.82
2023-08-26T18:06:22.586Z,3.67
2023-08-26T18:08:50.665Z,4.10
2023-08-26T18:11:18.821Z,4.60
2023-08-26T18:13:49.876Z,4.53
2023-08-26T18:16:17.982Z,3.75
2023-08-26T18:18:45.973Z,3.80
2023-08-26T18:21:14.009Z,5.05
2023-08-26T18:23:43.393Z,5.68
2023-08-26T18:26:11.972Z,5.28
2023-08-26T18:28:39.981Z,4.53
2023-08-26T18:31:08.230Z,3.90
2023-08-26T18:33:36.225Z,5.55
2023-08-26T18:36:04.549Z,4.35
2023-08-26T18:38:32.549Z,7.05
2023-08-26T18:41:02.360Z,4.45
2023-08-26T18:43:30.463Z,5.63
2023-08-26T18:45:58.652Z,5.60
2023-08-26T18:48:27.418Z,6.07
2023-08-26T18:51:00.146Z,5.95
2023-08-26T18:53:28.751Z,4.45
2023-08-26T18:55:57.389Z,5.45
2023-08-26T18:58:27.340Z,5.25
2023-08-26T19:00:56.831Z,6.97
2023-08-26T19:03:25.004Z,4.80
2023-08-26T19:05:53.530Z,4.45
2023-08-26T19:08:21.726Z,6.50
2023-08-26T19:10:49.795Z,5.32
2023-08-26T19:13:17.769Z,4.80
2023-08-26T19:15:47.331Z,7.68
2023-08-26T19:18:15.733Z,5.88
2023-08-26T19:20:43.889Z,5.97
2023-08-26T19:23:11.960Z,5.45
2023-08-26T19:25:41.941Z,5.00
2023-08-26T19:28:09.951Z,6.30
2023-08-26T19:30:37.894Z,4.82
2023-08-26T19:33:07.408Z,5.88
2023-08-26T19:35:35.557Z,5.63
2023-08-26T19:38:04.507Z,6.22
2023-08-26T19:40:33.456Z,6.40
2023-08-26T19:43:01.775Z,5.10
2023-08-26T19:45:30.335Z,6.43
2023-08-26T19:47:58.907Z,5.40
2023-08-26T19:50:28.506Z,5.60
2023-08-26T19:52:56.526Z,6.03
2023-08-26T19:55:25.736Z,4.75
2023-08-26T19:57:54.091Z,6.63
2023-08-26T20:00:22.173Z,7.28
2023-08-26T20:02:50.547Z,5.78
2023-08-26T20:05:18.940Z,6.88
2023-08-26T20:07:48.271Z,4.90
2023-08-26T20:10:16.307Z,5.03
2023-08-26T20:12:45.979Z,5.80
2023-08-26T20:15:14.029Z,4.88
2023-08-26T20:17:42.445Z,6.95
2023-08-26T20:20:11.999Z,7.47
2023-08-26T20:22:40.730Z,8.35
2023-08-26T20:25:10.585Z,4.97
2023-08-26T20:27:38.610Z,7.30
2023-08-26T20:30:08.672Z,5.90
2023-08-26T20:32:36.804Z,6.50
2023-08-26T20:35:05.520Z,5.90
2023-08-26T20:37:33.557Z,5.70
2023-08-26T20:40:01.581Z,6.35
2023-08-26T20:42:31.202Z,5.30
2023-08-26T20:44:59.477Z,5.10
2023-08-26T20:47:27.517Z,5.32
2023-08-26T20:49:56.080Z,7.10
2023-08-26T20:52:25.100Z,5.88
2023-08-26T20:54:53.135Z,7.75
2023-08-26T20:57:21.186Z,6.43
2023-08-26T20:59:50.883Z,4.90
2023-08-26T21:02:19.421Z,5.20
2023-08-26T21:04:47.705Z,5.55
2023-08-26T21:07:15.734Z,6.07
2023-08-26T21:09:46.565Z,5.32
2023-08-26T21:12:14.612Z,5.82
2023-08-26T21:14:42.637Z,7.35
2023-08-26T21:17:12.007Z,5.45
2023-08-26T21:19:40.197Z,5.80
2023-08-26T21:22:08.197Z,8.52
2023-08-26T21:24:36.184Z,7.22
2023-08-26T21:27:04.781Z,10.35
2023-08-26T21:29:32.962Z,8.52
2023-08-26T21:32:01.032Z,8.23
2023-08-26T21:34:30.734Z,7.35
2023-08-26T21:36:58.830Z,10.38
2023-08-26T21:39:26.932Z,11.07
2023-08-26T21:41:55.086Z,7.72
2023-08-26T21:44:23.194Z,10.27
2023-08-26T21:46:51.450Z,7.20
2023-08-26T21:49:20.026Z,8.60
2023-08-26T21:51:49.348Z,8.30
2023-08-26T21:54:17.421Z,7.32
2023-08-26T21:56:45.596Z,7.03
2023-08-26T21:59:13.546Z,10.13
2023-08-26T22:01:41.788Z,11.32
2023-08-26T22:04:09.768Z,10.68
2023-08-26T22:06:39.255Z,10.20
2023-08-26T22:09:08.892Z,8.70
2023-08-26T22:11:37.088Z,9.13
2023-08-26T22:14:05.112Z,8.73
2023-08-26T22:16:33.295Z,10.45
2023-08-26T22:19:01.418Z,8.82
2023-08-26T22:21:29.493Z,10.07
2023-08-26T22:23:57.552Z,8.77
2023-08-26T22:26:27.078Z,8.45
2023-08-26T22:28:56.316Z,9.05
2023-08-26T22:31:24.302Z,7.10
2023-08-26T22:33:52.475Z,8.63
2023-08-26T22:36:21.790Z,8.07
2023-08-26T22:38:49.913Z,8.07
2023-08-26T22:41:17.922Z,10.45
2023-08-26T22:43:49.398Z,7.97
2023-08-26T22:46:17.574Z,7.65
2023-08-26T22:48:45.679Z,7.70
2023-08-26T22:51:13.873Z,9.23
2023-08-26T22:53:41.894Z,8.00
2023-08-26T22:56:09.977Z,8.40
2023-08-26T22:58:37.981Z,8.43
2023-08-26T23:01:11.787Z,8.35
2023-08-26T23:03:39.990Z,7.95
2023-08-26T23:06:08.198Z,7.72
2023-08-26T23:08:36.312Z,8.63
2023-08-26T23:11:04.525Z,8.23
2023-08-26T23:13:32.572Z,10.65
2023-08-26T23:16:00.706Z,7.13
2023-08-26T23:18:30.337Z,6.90
2023-08-26T23:20:58.909Z,9.48
2023-08-26T23:23:27.090Z,8.45
2023-08-26T23:25:55.113Z,7.43
2023-08-26T23:28:23.129Z,10.02
2023-08-26T23:30:52.027Z,8.35
2023-08-26T23:33:20.082Z,6.95
2023-08-26T23:35:50.644Z,7.70
2023-08-26T23:38:18.662Z,10.70
2023-08-26T23:40:46.800Z,8.80
2023-08-26T23:43:14.843Z,6.20
2023-08-26T23:45:42.865Z,9.27
2023-08-26T23:48:11.584Z,6.38
2023-08-26T23:50:39.594Z,6.53
2023-08-26T23:53:09.148Z,11.43
2023-08-26T23:55:37.153Z,6.15
2023-08-26T23:58:05.543Z,6.95
